createdAt,value
2023-04-28T00:02:48.961Z,6.40
2023-04-28T00:07:51.463Z,6.70
2023-04-28T00:12:54.875Z,3.13
2023-04-28T00:17:57.083Z,3.43
2023-04-28T00:22:59.596Z,5.53
2023-04-28T00:28:03.465Z,1.93
2023-04-28T00:33:06.241Z,2.47
2023-04-28T00:38:08.809Z,3.03
2023-04-28T00:43:12.065Z,3.20
2023-04-28T00:48:15.260Z,2.50
2023-04-28T00:53:17.238Z,2.97
2023-04-28T00:58:21.252Z,1.70
2023-04-28T01:03:23.615Z,1.77
2023-04-28T01:08:29.490Z,1.80
2023-04-28T01:13:32.897Z,4.03
2023-04-28T01:18:36.072Z,5.13
2023-04-28T01:23:38.325Z,5.37
2023-04-28T01:28:41.957Z,5.50
2023-04-28T01:33:43.995Z,3.30
2023-04-28T01:38:46.330Z,3.20
2023-04-28T01:43:50.160Z,2.37
2023-04-28T01:48:52.277Z,2.87
2023-04-28T01:53:54.117Z,2.57
2023-04-28T01:58:57.410Z,4.17
2023-04-28T02:04:00.022Z,4.80
2023-04-28T02:09:02.153Z,2.37
2023-04-28T02:14:05.728Z,3.87
2023-04-28T02:19:08.084Z,3.73
2023-04-28T02:24:10.508Z,1.40
2023-04-28T02:29:14.445Z,2.23
2023-04-28T02:34:16.926Z,4.57
2023-04-28T02:39:21.603Z,3.50
2023-04-28T02:44:24.945Z,4.30
2023-04-28T02:49:27.320Z,3.57
2023-04-28T02:54:29.142Z,3.20
2023-04-28T02:59:32.552Z,3.30
2023-04-28T03:04:34.821Z,4.20
2023-04-28T03:09:36.876Z,3.50
2023-04-28T03:14:40.649Z,5.10
2023-04-28T03:19:42.682Z,5.23
2023-04-28T03:24:44.736Z,5.23
2023-04-28T03:29:48.028Z,3.90
2023-04-28T03:34:50.141Z,4.00
2023-04-28T03:39:51.984Z,5.33
2023-04-28T03:44:55.629Z,5.60
2023-04-28T03:49:59.047Z,4.33
2023-04-28T03:55:01.186Z,7.80
2023-04-28T04:00:04.776Z,5.57
2023-04-28T04:05:07.780Z,5.30
2023-04-28T04:10:10.957Z,6.13
2023-04-28T04:15:14.303Z,3.87
2023-04-28T04:20:16.443Z,7.67
2023-04-28T04:25:18.430Z,6.60
2023-04-28T04:30:22.404Z,6.50
2023-04-28T04:35:24.379Z,5.83
2023-04-28T04:40:26.977Z,3.90
2023-04-28T04:45:30.807Z,8.63
2023-04-28T04:50:32.885Z,6.40
2023-04-28T04:55:41.872Z,6.77
2023-04-28T05:00:51.551Z,12.67
2023-04-28T05:06:16.311Z,8.80
2023-04-28T05:11:37.822Z,6.90
2023-04-28T05:16:41.654Z,8.90
2023-04-28T05:21:44.119Z,8.60
2023-04-28T05:26:46.494Z,11.07
2023-04-28T05:31:50.226Z,9.83
2023-04-28T05:36:54.189Z,7.80
2023-04-28T05:41:56.671Z,10.60
2023-04-28T05:47:00.057Z,12.10
2023-04-28T05:52:01.942Z,7.40
2023-04-28T05:57:04.450Z,7.17
2023-04-28T06:02:08.611Z,8.33
2023-04-28T06:07:11.323Z,8.73
2023-04-28T06:12:13.606Z,13.67
2023-04-28T06:17:20.196Z,8.00
2023-04-28T06:22:22.415Z,10.17
2023-04-28T06:27:24.250Z,8.87
2023-04-28T06:32:27.669Z,7.30
2023-04-28T06:37:29.986Z,6.80
2023-04-28T06:42:32.786Z,7.13
2023-04-28T06:47:40.949Z,7.23
2023-04-28T06:52:43.384Z,5.37
2023-04-28T06:57:46.010Z,5.43
2023-04-28T07:02:49.945Z,5.30
2023-04-28T07:07:55.929Z,6.23
2023-04-28T07:12:58.072Z,5.13
2023-04-28T07:18:01.549Z,10.87
2023-04-28T07:23:04.625Z,13.43
2023-04-28T07:28:08.146Z,8.40
2023-04-28T07:33:11.646Z,28.30
2023-04-28T07:38:15.106Z,4.83
2023-04-28T07:43:17.233Z,7.17
2023-04-28T07:48:21.254Z,3.77
2023-04-28T07:53:23.495Z,7.43
2023-04-28T07:58:25.336Z,6.43
2023-04-28T08:03:29.010Z,8.33
2023-04-28T08:08:32.551Z,5.23
2023-04-28T08:13:34.749Z,4.60
2023-04-28T08:18:38.024Z,4.23
2023-04-28T08:23:40.230Z,4.87
2023-04-28T08:28:42.724Z,4.47
2023-04-28T08:33:48.760Z,4.90
2023-04-28T08:38:51.089Z,12.10
2023-04-28T08:43:53.372Z,14.13
2023-04-28T08:49:01.633Z,10.40
2023-04-28T08:59:11.089Z,10.33
2023-04-28T09:04:15.202Z,7.53
2023-04-28T09:09:22.729Z,5.20
2023-04-28T09:14:25.722Z,7.50
2023-04-28T09:19:36.521Z,5.67
2023-04-28T09:24:40.775Z,6.13
2023-04-28T09:29:54.563Z,4.60
2023-04-28T09:34:58.035Z,4.80
2023-04-28T09:40:06.871Z,3.77
2023-04-28T09:45:10.822Z,4.97
2023-04-28T09:50:17.482Z,5.50
2023-04-28T09:55:20.753Z,4.53
2023-04-28T10:00:24.068Z,6.80
2023-04-28T10:05:27.853Z,4.33
2023-04-28T10:10:30.424Z,4.23
2023-04-28T10:15:33.658Z,4.23
2023-04-28T10:20:37.900Z,3.27
2023-04-28T10:25:40.703Z,3.57
2023-04-28T10:30:43.228Z,3.90
2023-04-28T10:35:48.842Z,6.00
2023-04-28T10:40:52.702Z,6.10
2023-04-28T10:46:06.834Z,7.53
2023-04-28T10:51:34.465Z,4.87
2023-04-28T10:56:36.756Z,6.23
2023-04-28T11:01:40.651Z,9.40
2023-04-28T11:06:46.092Z,4.07
2023-04-28T11:12:10.772Z,4.63
2023-04-28T11:17:16.578Z,5.90
2023-04-28T11:22:22.124Z,4.90
2023-04-28T11:27:26.169Z,3.17
2023-04-28T11:32:29.952Z,5.40
2023-04-28T11:37:33.687Z,5.77
2023-04-28T11:42:36.081Z,4.67
2023-04-28T11:47:37.985Z,4.60
2023-04-28T11:52:53.602Z,6.00
2023-04-28T11:58:22.468Z,5.50
2023-04-28T12:03:24.731Z,8.20
2023-04-28T12:08:31.336Z,7.20
2023-04-28T12:13:33.953Z,8.00
2023-04-28T12:18:36.598Z,7.13
2023-04-28T12:23:42.160Z,9.40
2023-04-28T12:28:44.399Z,7.33
2023-04-28T12:33:46.898Z,5.77
2023-04-28T12:38:53.638Z,4.77
2023-04-28T12:43:56.182Z,5.47
2023-04-28T12:48:58.460Z,5.33
2023-04-28T12:54:02.009Z,8.70
2023-04-28T12:59:04.949Z,6.60
2023-04-28T13:04:07.730Z,6.70
2023-04-28T13:09:12.423Z,6.47
2023-04-28T13:14:15.117Z,5.90
2023-04-28T13:19:17.574Z,6.63
2023-04-28T13:24:21.578Z,5.73
2023-04-28T13:29:23.991Z,8.63
2023-04-28T13:34:26.359Z,7.10
2023-04-28T13:39:30.102Z,9.27
2023-04-28T13:44:32.214Z,6.93
2023-04-28T13:49:34.333Z,6.93
2023-04-28T13:54:38.269Z,4.30
2023-04-28T13:59:40.555Z,4.43
2023-04-28T14:04:48.828Z,6.73
2023-04-28T14:09:52.943Z,4.77
2023-04-28T14:14:55.117Z,4.33
2023-04-28T14:19:57.239Z,6.40
2023-04-28T14:25:00.885Z,5.27
2023-04-28T14:30:03.891Z,7.53
2023-04-28T14:35:07.126Z,7.23
2023-04-28T14:40:12.401Z,7.40
2023-04-28T14:45:15.082Z,3.10
2023-04-28T14:50:18.876Z,2.77
2023-04-28T14:55:23.567Z,6.53
2023-04-28T15:00:26.212Z,6.37
2023-04-28T15:05:28.512Z,4.80
2023-04-28T15:10:40.504Z,5.30
2023-04-28T15:15:43.676Z,7.53
2023-04-28T15:20:46.401Z,6.13
2023-04-28T15:25:53.805Z,5.87
2023-04-28T15:30:56.603Z,8.73
2023-04-28T15:36:00.146Z,7.30
2023-04-28T15:41:04.011Z,6.40
2023-04-28T15:46:09.143Z,6.80
2023-04-28T15:51:12.354Z,11.00
2023-04-28T15:56:17.498Z,8.47
2023-04-28T16:01:22.764Z,14.20
2023-04-28T16:06:25.727Z,10.07
2023-04-28T16:11:29.936Z,7.37
2023-04-28T16:16:32.224Z,7.87
2023-04-28T16:21:34.681Z,7.80
2023-04-28T16:26:38.148Z,8.07
2023-04-28T16:31:40.734Z,8.00
2023-04-28T16:36:42.905Z,4.03
2023-04-28T16:41:46.566Z,6.20
2023-04-28T16:46:48.991Z,8.30
2023-04-28T16:51:58.228Z,7.50
2023-04-28T16:57:04.279Z,5.63
2023-04-28T17:02:07.109Z,15.67
2023-04-28T17:07:09.395Z,14.43
2023-04-28T17:12:12.990Z,14.07
2023-04-28T17:17:15.435Z,14.23
2023-04-28T17:22:17.821Z,9.90
2023-04-28T17:27:21.191Z,10.13
2023-04-28T17:32:23.378Z,11.87
2023-04-28T17:37:25.974Z,13.17
2023-04-28T17:42:32.348Z,10.60
2023-04-28T17:47:34.603Z,10.70
2023-04-28T17:52:36.725Z,9.83
2023-04-28T17:57:40.701Z,6.53
2023-04-28T18:02:43.008Z,14.40
2023-04-28T18:07:45.386Z,14.80
2023-04-28T18:12:51.008Z,11.73
2023-04-28T18:17:57.066Z,9.23
2023-04-28T18:22:59.858Z,6.43
2023-04-28T18:28:07.784Z,5.77
2023-04-28T18:33:12.550Z,7.27
2023-04-28T18:38:15.737Z,5.53
2023-04-28T18:43:19.999Z,11.43
2023-04-28T18:48:23.789Z,7.23
2023-04-28T18:53:26.776Z,6.33
2023-04-28T18:58:34.836Z,7.37
2023-04-28T19:03:38.619Z,6.53
2023-04-28T19:08:43.389Z,7.73
2023-04-28T19:13:47.724Z,9.33
2023-04-28T19:18:51.128Z,8.53
2023-04-28T19:23:54.872Z,8.63
2023-04-28T19:28:59.031Z,4.63
2023-04-28T19:34:01.903Z,4.07
2023-04-28T19:39:05.189Z,3.70
2023-04-28T19:44:11.251Z,2.27
2023-04-28T19:49:14.684Z,1.93
2023-04-28T19:54:18.333Z,3.17
2023-04-28T19:59:22.123Z,3.07
2023-04-28T20:04:25.102Z,3.97
2023-04-28T20:09:28.817Z,5.33
2023-04-28T20:14:33.617Z,4.97
2023-04-28T20:19:37.489Z,3.20
2023-04-28T20:24:40.555Z,4.63
2023-04-28T20:29:44.920Z,3.93
2023-04-28T20:34:48.133Z,2.73
2023-04-28T20:39:51.215Z,3.80
2023-04-28T20:44:54.628Z,4.77
2023-04-28T20:49:56.544Z,4.07
2023-04-28T20:54:59.366Z,7.57
2023-04-28T21:00:03.979Z,2.70
2023-04-28T21:05:06.851Z,3.03
2023-04-28T21:10:10.844Z,2.33
2023-04-28T21:15:14.985Z,2.57
2023-04-28T21:20:17.307Z,3.17
2023-04-28T21:25:20.498Z,3.27
2023-04-28T21:30:26.651Z,2.40
2023-04-28T21:35:28.974Z,2.10
2023-04-28T21:40:31.685Z,2.27
2023-04-28T21:45:35.477Z,2.80
2023-04-28T21:50:37.704Z,4.57
2023-04-28T21:55:39.964Z,5.33
2023-04-28T22:00:46.778Z,4.33
2023-04-28T22:05:49.142Z,5.07
2023-04-28T22:10:51.546Z,5.73
2023-04-28T22:15:56.367Z,7.97
2023-04-28T22:20:58.847Z,8.87
2023-04-28T22:26:01.173Z,7.03
2023-04-28T22:31:05.076Z,9.33
2023-04-28T22:36:07.920Z,7.43
2023-04-28T22:41:10.182Z,8.00
2023-04-28T22:46:14.116Z,5.87
2023-04-28T22:51:16.745Z,7.83
2023-04-28T22:56:19.359Z,10.03
2023-04-28T23:01:23.230Z,7.10
2023-04-28T23:06:28.929Z,6.27
2023-04-28T23:11:31.238Z,3.37
2023-04-28T23:16:34.813Z,2.00
2023-04-28T23:21:36.876Z,2.50
2023-04-28T23:26:38.675Z,2.13
2023-04-28T23:31:42.562Z,1.53
2023-04-28T23:36:45.282Z,1.83
2023-04-28T23:41:47.284Z,3.97
2023-04-28T23:46:51.058Z,0.70
2023-04-28T23:51:53.084Z,1.37
2023-04-28T23:56:55.741Z,1.20
